Time;durP1;ratioP1;P1;durP2;ratioP2;P2;SDS_P1;SDS_P2;PMS_P1;PMS_P2;Temp;Humidity;BMP_temperature;BMP_pressure;BME280_temperature;BME280_humidity;BME280_pressure;Samples;Min_cycle;Max_cycle;Signal;HPM_P1;HPM_P2
2021/05/02 00:01:39;;;;;;;0.30;0.20;;;;;;;11.46;56.76;99847.59;5033440;28;20603;-57
2021/05/02 00:04:06;;;;;;;1.90;1.07;;;;;;;11.19;57.41;99849.53;5033295;28;20828;-57
2021/05/02 00:06:32;;;;;;;0.30;0.20;;;;;;;11.32;57.47;99850.78;5033225;28;20479;-57
2021/05/02 00:08:59;;;;;;;0.30;0.20;;;;;;;11.49;56.00;99847.47;5033231;28;20448;-57
2021/05/02 00:11:25;;;;;;;0.30;0.30;;;;;;;11.32;56.91;99842.81;5033319;28;20451;-57
2021/05/02 00:13:51;;;;;;;0.30;0.20;;;;;;;11.45;56.65;99841.41;5033296;28;20471;-57
2021/05/02 00:16:17;;;;;;;1.17;1.17;;;;;;;11.53;55.88;99846.44;5033231;28;20460;-56
2021/05/02 00:18:46;;;;;;;0.30;0.20;;;;;;;11.48;56.78;99853.72;5033053;28;20928;-57
2021/05/02 00:21:12;;;;;;;0.30;0.20;;;;;;;11.35;57.04;99850.66;5033303;28;20451;-57
2021/05/02 00:23:40;;;;;;;0.30;0.20;;;;;;;11.41;57.05;99845.13;5032656;28;20549;-57
2021/05/02 00:26:08;;;;;;;0.30;0.20;;;;;;;11.44;57.36;99852.09;5019828;28;20456;-57
2021/05/02 00:28:37;;;;;;;0.30;0.20;;;;;;;11.36;57.18;99854.19;5032932;28;20443;-57
2021/05/02 00:31:05;;;;;;;0.30;0.20;;;;;;;11.34;57.34;99850.72;5032918;28;20509;-57
2021/05/02 00:33:34;;;;;;;0.30;0.20;;;;;;;11.17;57.44;99854.03;5032577;28;20533;-57
2021/05/02 00:36:04;;;;;;;0.30;0.20;;;;;;;11.18;57.90;99861.09;5032924;28;20456;-56
2021/05/02 00:38:34;;;;;;;0.30;0.20;;;;;;;11.05;58.30;99857.16;5033103;28;20526;-57
2021/05/02 00:41:05;;;;;;;2.77;2.67;;;;;;;11.21;58.21;99858.31;5032994;28;20509;-56
2021/05/02 00:43:37;;;;;;;0.30;0.20;;;;;;;11.20;58.34;99857.44;5014876;28;20470;-56
2021/05/02 00:46:13;;;;;;;4.10;1.17;;;;;;;11.07;58.44;99858.81;5032484;28;20475;-56
2021/05/02 00:49:03;;;;;;;0.40;0.40;;;;;;;11.13;58.62;99865.72;5032442;28;20523;-56
2021/05/02 00:51:37;;;;;;;0.30;0.20;;;;;;;10.79;59.51;99866.09;5022320;28;20867;-57
2021/05/02 00:54:19;;;;;;;0.30;0.20;;;;;;;10.89;59.36;99868.34;5013402;28;20514;-56
2021/05/02 00:57:07;;;;;;;0.30;0.20;;;;;;;10.79;60.05;99872.28;5032699;28;20475;-57
2021/05/02 00:59:44;;;;;;;0.30;0.20;;;;;;;10.91;59.71;99868.31;5032240;28;20483;-56
2021/05/02 01:02:12;;;;;;;1.63;1.17;;;;;;;10.87;59.94;99869.34;5032323;28;20472;-56
2021/05/02 01:04:44;;;;;;;0.30;0.20;;;;;;;10.67;60.13;99868.25;5032458;28;20451;-56
2021/05/02 01:07:20;;;;;;;0.30;0.20;;;;;;;10.71;60.53;99876.16;5032375;28;20929;-56
2021/05/02 01:10:14;;;;;;;0.30;0.20;;;;;;;10.63;61.48;99873.75;5032378;28;20791;-57
2021/05/02 01:12:46;;;;;;;0.30;0.20;;;;;;;10.63;61.08;99869.31;5032197;28;20525;-57
2021/05/02 01:15:19;;;;;;;0.30;0.20;;;;;;;10.57;61.29;99873.97;5032379;28;20495;-56
2021/05/02 01:17:49;;;;;;;0.60;0.60;;;;;;;10.56;61.36;99872.25;5032074;28;20448;-56
2021/05/02 01:20:15;;;;;;;0.30;0.20;;;;;;;10.50;62.07;99877.75;5032400;28;20498;-57
2021/05/02 01:22:43;;;;;;;0.30;0.20;;;;;;;10.59;62.14;99878.31;5031986;28;20476;-56
2021/05/02 01:25:13;;;;;;;0.30;0.20;;;;;;;10.59;62.01;99866.81;5032254;28;20941;-56
2021/05/02 01:27:39;;;;;;;0.30;0.20;;;;;;;10.38;62.95;99879.91;5032216;28;20505;-57
2021/05/02 01:30:09;;;;;;;0.30;0.20;;;;;;;10.31;63.62;99882.84;5032087;28;20925;-56
2021/05/02 01:32:36;;;;;;;0.30;0.20;;;;;;;10.49;63.29;99886.66;5031849;28;20487;-56
2021/05/02 01:35:04;;;;;;;0.30;0.20;;;;;;;10.27;63.61;99891.81;5032337;28;20462;-56
2021/05/02 01:37:31;;;;;;;0.30;0.20;;;;;;;10.63;62.38;99890.56;5032020;28;20491;-56
2021/05/02 01:39:58;;;;;;;0.40;0.30;;;;;;;10.24;63.91;99895.44;5014517;28;20492;-57
2021/05/02 01:42:25;;;;;;;0.30;0.20;;;;;;;10.26;64.58;99900.72;5031719;28;20506;-56
2021/05/02 01:44:51;;;;;;;0.30;0.20;;;;;;;10.34;63.99;99899.53;5031712;28;20451;-57
2021/05/02 01:47:20;;;;;;;0.33;0.20;;;;;;;10.47;63.90;99902.66;5032065;28;20539;-56
2021/05/02 01:50:00;;;;;;;0.30;0.20;;;;;;;10.37;63.71;99899.44;5031723;28;20479;-56
2021/05/02 01:52:27;;;;;;;0.30;0.20;;;;;;;10.52;63.22;99900.69;5019065;28;20518;-56
2021/05/02 01:54:55;;;;;;;0.30;0.20;;;;;;;10.30;64.19;99902.38;5031980;28;20459;-56
2021/05/02 01:57:26;;;;;;;0.30;0.20;;;;;;;10.47;63.15;99904.44;5017898;28;20864;-57
2021/05/02 01:59:55;;;;;;;1.17;0.63;;;;;;;10.26;64.14;99912.19;5036245;28;20483;-56
2021/05/02 02:02:24;;;;;;;0.30;0.20;;;;;;;10.32;63.74;99912.03;5035688;28;20471;-56
2021/05/02 02:04:55;;;;;;;0.30;0.20;;;;;;;10.43;63.91;99916.09;5035373;28;20552;-56
2021/05/02 02:07:23;;;;;;;0.30;0.20;;;;;;;10.19;64.90;99913.31;5035858;28;20907;-56
2021/05/02 02:09:51;;;;;;;0.30;0.20;;;;;;;10.47;64.23;99923.91;5035721;28;20447;-57
2021/05/02 02:12:17;;;;;;;0.30;0.20;;;;;;;10.24;65.25;99919.34;5018132;28;20472;-56
2021/05/02 02:14:48;;;;;;;0.40;0.40;;;;;;;10.62;64.74;99925.16;5035295;28;20459;-57
2021/05/02 02:17:16;;;;;;;0.30;0.20;;;;;;;10.29;65.50;99928.06;5035698;28;20505;-57
2021/05/02 02:19:43;;;;;;;0.30;0.20;;;;;;;10.21;66.09;99924.78;5035533;28;20491;-56
2021/05/02 02:22:11;;;;;;;2.10;1.03;;;;;;;10.04;66.85;99927.09;5035635;28;20864;-56
2021/05/02 02:24:44;;;;;;;0.53;0.53;;;;;;;9.83;68.19;99925.09;5035312;28;20502;-57
2021/05/02 02:27:11;;;;;;;0.30;0.20;;;;;;;9.77;68.65;99926.19;5035333;28;21010;-57
2021/05/02 02:29:47;;;;;;;0.30;0.20;;;;;;;9.77;68.91;99927.03;5017825;28;20443;-56
2021/05/02 02:32:16;;;;;;;0.70;0.70;;;;;;;9.65;68.99;99929.22;5035092;28;20487;-57
2021/05/02 02:34:46;;;;;;;0.30;0.20;;;;;;;9.63;69.89;99929.25;5035297;28;20457;-57
2021/05/02 02:37:17;;;;;;;0.40;0.30;;;;;;;9.50;70.00;99927.88;5035483;28;20451;-57
2021/05/02 02:39:51;;;;;;;0.30;0.20;;;;;;;9.53;71.41;99938.41;5022090;28;20491;-57
2021/05/02 02:42:21;;;;;;;0.30;0.20;;;;;;;9.48;70.54;99941.22;5017182;28;20463;-57
2021/05/02 02:44:53;;;;;;;0.30;0.20;;;;;;;9.49;71.02;99950.03;5035207;28;20859;-57
2021/05/02 02:47:25;;;;;;;0.30;0.20;;;;;;;9.42;71.53;99951.13;5035046;28;20501;-56
2021/05/02 02:49:57;;;;;;;0.80;0.80;;;;;;;9.33;71.74;99951.41;5034940;28;20817;-56
2021/05/02 02:52:26;;;;;;;0.40;0.33;;;;;;;9.33;71.79;99954.06;5021527;28;20884;-57
2021/05/02 02:55:05;;;;;;;0.30;0.20;;;;;;;9.31;72.14;99948.75;5034737;28;20988;-57
2021/05/02 02:57:40;;;;;;;0.30;0.20;;;;;;;9.28;72.82;99956.81;5034674;28;20502;-56
2021/05/02 03:00:07;;;;;;;0.30;0.20;;;;;;;9.70;70.64;99956.47;5034883;28;20569;-57
2021/05/02 03:02:38;;;;;;;0.30;0.20;;;;;;;9.63;71.56;99963.75;5034764;28;20566;-56
2021/05/02 03:05:05;;;;;;;0.30;0.20;;;;;;;9.50;72.34;99957.06;5034246;28;20494;-56
2021/05/02 03:07:33;;;;;;;0.30;0.20;;;;;;;9.35;73.06;99957.53;5033844;28;20451;-56
2021/05/02 03:09:59;;;;;;;0.30;0.20;;;;;;;9.27;73.30;99965.69;5034760;28;20447;-57
2021/05/02 03:12:27;;;;;;;0.30;0.20;;;;;;;9.24;74.07;99963.13;5034292;28;20476;-57
2021/05/02 03:14:55;;;;;;;0.30;0.20;;;;;;;9.22;74.57;99966.75;5034575;28;20510;-56
2021/05/02 03:17:28;;;;;;;0.30;0.20;;;;;;;9.17;74.89;99973.03;5034313;28;20506;-56
2021/05/02 03:20:06;;;;;;;0.30;0.20;;;;;;;9.29;73.96;99969.16;5034298;28;20492;-57
2021/05/02 03:22:41;;;;;;;0.80;0.80;;;;;;;9.17;74.50;99982.75;5034104;28;20479;-56
2021/05/02 03:25:10;;;;;;;0.30;0.20;;;;;;;9.19;73.88;99987.13;5034961;28;20501;-56
2021/05/02 03:27:47;;;;;;;0.30;0.20;;;;;;;9.15;74.32;99992.56;5034599;28;20460;-57
2021/05/02 03:30:14;;;;;;;0.40;0.30;;;;;;;9.01;74.49;99997.34;5034368;28;20439;-56
2021/05/02 03:32:47;;;;;;;0.30;0.20;;;;;;;8.97;75.01;99993.94;5033843;28;20518;-56
2021/05/02 03:35:27;;;;;;;0.40;0.30;;;;;;;8.90;75.58;100010.88;5032117;28;20448;-56
2021/05/02 03:38:19;;;;;;;0.30;0.20;;;;;;;8.87;76.04;100006.53;5016081;28;20538;-56
2021/05/02 03:40:51;;;;;;;0.30;0.20;;;;;;;8.64;77.42;100008.06;5034054;28;20609;-56
2021/05/02 03:43:28;;;;;;;0.30;0.20;;;;;;;8.60;78.28;100005.47;5034184;28;20843;-56
2021/05/02 03:46:26;;;;;;;0.30;0.20;;;;;;;8.50;79.45;100014.59;5033268;28;20821;-56
2021/05/02 03:49:05;;;;;;;0.30;0.20;;;;;;;8.31;79.76;100021.19;5033971;28;20526;-57
2021/05/02 03:51:41;;;;;;;0.30;0.20;;;;;;;8.30;78.88;100020.31;5034081;28;20507;-57
2021/05/02 03:54:37;;;;;;;0.30;0.20;;;;;;;8.22;79.86;100024.94;5033689;28;20998;-56
2021/05/02 03:57:15;;;;;;;0.30;0.20;;;;;;;8.15;80.08;100022.44;5029708;28;20445;-57
2021/05/02 04:00:28;;;;;;;;;;;;;;;;;;;;;
2021/05/02 04:02:55;;;;;;;0.30;0.20;;;;;;;7.99;81.17;100028.09;5033837;28;20828;-57
2021/05/02 04:05:30;;;;;;;0.40;0.40;;;;;;;7.93;81.38;100036.16;5015849;28;20509;-56
2021/05/02 04:08:38;;;;;;;0.83;0.83;;;;;;;8.01;81.51;100034.22;5032172;28;20940;-56
2021/05/02 04:11:16;;;;;;;0.50;0.50;;;;;;;7.97;81.01;100045.78;5031790;28;20875;-57
2021/05/02 04:13:51;;;;;;;0.30;0.20;;;;;;;8.46;79.34;100043.81;5026442;28;20471;-56
2021/05/02 04:16:41;;;;;;;0.30;0.20;;;;;;;8.27;79.43;100046.00;5005429;28;20860;-56
2021/05/02 04:19:22;;;;;;;0.40;0.33;;;;;;;8.32;79.18;100049.41;5032188;28;20487;-56
2021/05/02 04:22:19;;;;;;;0.30;0.20;;;;;;;8.18;79.62;100054.13;5022332;28;20983;-53
2021/05/02 04:24:51;;;;;;;0.43;0.43;;;;;;;8.03;80.88;100050.94;5013570;28;20548;-54
2021/05/02 04:27:18;;;;;;;0.30;0.20;;;;;;;8.42;79.71;100055.38;5024835;28;20455;-52
2021/05/02 04:29:44;;;;;;;0.30;0.20;;;;;;;8.20;79.05;100058.47;5033484;28;20448;-53
2021/05/02 04:32:10;;;;;;;0.33;0.23;;;;;;;8.22;79.20;100069.03;5033190;28;20472;-51
2021/05/02 04:34:37;;;;;;;0.30;0.20;;;;;;;8.32;79.53;100066.16;5033280;28;20818;-53
2021/05/02 04:37:03;;;;;;;1.90;1.90;;;;;;;8.53;78.12;100067.47;5015747;28;20454;-53
2021/05/02 04:39:30;;;;;;;0.30;0.20;;;;;;;8.35;79.20;100078.47;5015343;28;20487;-53
2021/05/02 04:41:57;;;;;;;0.30;0.20;;;;;;;8.11;80.54;100081.66;5033188;28;20498;-53
2021/05/02 04:44:25;;;;;;;0.30;0.20;;;;;;;8.10;80.38;100078.16;5033164;28;20451;-53
2021/05/02 04:46:52;;;;;;;0.30;0.20;;;;;;;8.23;79.46;100089.34;5032938;28;21008;-53
2021/05/02 04:49:21;;;;;;;0.30;0.20;;;;;;;8.52;78.62;100094.00;5032712;28;20448;-53
2021/05/02 04:51:47;;;;;;;0.97;0.97;;;;;;;8.96;76.26;100097.34;5020142;28;20498;-53
2021/05/02 04:54:13;;;;;;;0.40;0.30;;;;;;;8.69;77.08;100098.91;5032222;28;20479;-53
2021/05/02 04:56:39;;;;;;;0.30;0.20;;;;;;;8.65;78.02;100099.88;5032899;28;20451;-53
2021/05/02 04:59:09;;;;;;;0.30;0.20;;;;;;;8.82;77.97;100103.00;5032652;28;20496;-53
2021/05/02 05:01:40;;;;;;;0.30;0.20;;;;;;;8.78;78.08;100111.94;5032802;28;20505;-53
2021/05/02 05:04:07;;;;;;;1.23;1.23;;;;;;;9.36;77.10;100113.09;5020288;28;20506;-53
2021/05/02 05:06:34;;;;;;;0.30;0.20;;;;;;;9.89;73.65;100113.41;5032272;28;20523;-54
2021/05/02 05:09:01;;;;;;;1.67;1.40;;;;;;;10.18;73.25;100116.09;5032480;28;20864;-54
2021/05/02 05:11:27;;;;;;;0.30;0.20;;;;;;;10.61;71.51;100125.44;5032628;28;20456;-54
2021/05/02 05:13:53;;;;;;;0.30;0.20;;;;;;;11.05;70.12;100121.34;5032375;28;20985;-54
2021/05/02 05:16:19;;;;;;;0.33;0.20;;;;;;;11.05;70.46;100123.13;5032280;28;20448;-53
2021/05/02 05:18:46;;;;;;;0.30;0.20;;;;;;;11.10;70.41;100126.50;5032306;28;20498;-54
2021/05/02 05:21:12;;;;;;;0.30;0.20;;;;;;;11.34;69.65;100130.13;5032341;28;20451;-54
2021/05/02 05:23:38;;;;;;;0.30;0.20;;;;;;;11.53;68.86;100136.56;5032166;28;21121;-54
2021/05/02 05:26:04;;;;;;;0.30;0.20;;;;;;;10.93;70.30;100137.69;5032143;28;20459;-54
2021/05/02 05:28:30;;;;;;;0.30;0.20;;;;;;;11.49;69.26;100140.25;5032460;28;20451;-54
2021/05/02 05:30:57;;;;;;;0.30;0.20;;;;;;;11.38;67.97;100150.41;5031824;28;20452;-54
2021/05/02 05:33:28;;;;;;;0.30;0.20;;;;;;;11.17;68.80;100160.84;5032119;28;20494;-53
2021/05/02 05:35:54;;;;;;;0.30;0.20;;;;;;;10.73;69.32;100161.41;5032260;28;20493;-54
2021/05/02 05:38:20;;;;;;;0.30;0.20;;;;;;;10.91;68.25;100172.31;5032160;28;20963;-54
2021/05/02 05:40:47;;;;;;;0.30;0.20;;;;;;;10.72;69.67;100170.31;5014682;28;20452;-53
2021/05/02 05:43:13;;;;;;;0.50;0.50;;;;;;;10.42;70.23;100165.00;5031996;28;20471;-54
2021/05/02 05:45:39;;;;;;;0.30;0.20;;;;;;;10.39;70.75;100171.25;5032177;28;20447;-54
2021/05/02 05:48:05;;;;;;;2.63;2.00;;;;;;;10.52;69.89;100173.56;5032195;28;20447;-54
2021/05/02 05:50:32;;;;;;;0.30;0.20;;;;;;;10.35;70.85;100177.59;5029526;28;20448;-54
2021/05/02 05:52:58;;;;;;;0.30;0.20;;;;;;;10.44;70.83;100175.59;5021622;28;20475;-54
2021/05/02 05:55:24;;;;;;;0.30;0.20;;;;;;;10.03;72.15;100170.53;5031867;28;20852;-54
2021/05/02 05:57:51;;;;;;;0.30;0.20;;;;;;;9.84;73.17;100181.69;5031969;28;20452;-54
2021/05/02 06:00:21;;;;;;;3.70;2.40;;;;;;;9.88;72.91;100178.91;5031811;28;20523;-54
2021/05/02 06:02:48;;;;;;;0.50;0.47;;;;;;;9.90;72.73;100181.53;5032026;28;20471;-54
2021/05/02 06:05:15;;;;;;;0.30;0.20;;;;;;;10.13;72.93;100191.50;5031882;28;20463;-54
2021/05/02 06:07:43;;;;;;;0.30;0.20;;;;;;;10.45;70.25;100187.94;5031994;28;20940;-54
2021/05/02 06:10:11;;;;;;;0.30;0.20;;;;;;;10.48;70.08;100187.84;5031758;28;20455;-54
2021/05/02 06:12:37;;;;;;;0.50;0.50;;;;;;;10.42;68.96;100191.56;5031776;28;20525;-54
2021/05/02 06:15:04;;;;;;;0.30;0.20;;;;;;;10.73;68.57;100183.53;5014234;28;20949;-54
2021/05/02 06:17:31;;;;;;;0.97;0.97;;;;;;;10.49;69.48;100187.81;5031573;28;20455;-54
2021/05/02 06:19:57;;;;;;;4.00;2.30;;;;;;;10.83;68.77;100192.09;5014089;28;21036;-54
2021/05/02 06:22:23;;;;;;;0.30;0.20;;;;;;;11.01;68.64;100194.19;5031719;28;20494;-54
2021/05/02 06:24:49;;;;;;;0.30;0.20;;;;;;;11.00;68.10;100191.56;5031681;28;20999;-54
2021/05/02 06:27:15;;;;;;;0.33;0.20;;;;;;;11.12;66.03;100192.06;5031977;28;20447;-54
2021/05/02 06:29:42;;;;;;;0.40;0.30;;;;;;;11.32;63.95;100191.38;5031550;28;20451;-54
2021/05/02 06:32:08;;;;;;;0.30;0.20;;;;;;;11.15;64.50;100191.94;5031777;28;20447;-54
2021/05/02 06:34:34;;;;;;;0.30;0.20;;;;;;;11.26;65.16;100192.47;5031621;28;20452;-54
2021/05/02 06:37:01;;;;;;;0.40;0.30;;;;;;;11.11;66.74;100200.09;5031894;28;20451;-53
2021/05/02 06:39:27;;;;;;;0.30;0.20;;;;;;;11.11;66.44;100202.75;5031646;28;20491;-54
2021/05/02 06:41:53;;;;;;;0.30;0.20;;;;;;;10.49;68.22;100210.84;5031991;28;20452;-54
2021/05/02 06:44:20;;;;;;;0.43;0.40;;;;;;;10.58;67.56;100202.63;5021835;28;20824;-54
2021/05/02 06:46:47;;;;;;;0.30;0.20;;;;;;;10.64;68.28;100205.06;5035235;28;20827;-54
2021/05/02 06:49:13;;;;;;;0.30;0.20;;;;;;;10.44;67.81;100211.00;5034944;28;20498;-54
2021/05/02 06:51:39;;;;;;;0.40;0.40;;;;;;;10.82;68.19;100207.16;5023627;28;20508;-54
2021/05/02 06:54:06;;;;;;;0.30;0.20;;;;;;;10.49;68.76;100210.84;5033513;28;20613;-54
2021/05/02 06:56:34;;;;;;;0.30;0.20;;;;;;;10.58;68.05;100221.22;5017376;28;20456;-54
2021/05/02 06:59:00;;;;;;;0.40;0.30;;;;;;;10.38;68.88;100222.66;5034804;28;20490;-54
2021/05/02 07:01:26;;;;;;;0.30;0.20;;;;;;;10.44;68.25;100224.28;5035267;28;20501;-54
2021/05/02 07:03:54;;;;;;;0.30;0.20;;;;;;;10.57;68.42;100219.47;5035018;28;20498;-55
2021/05/02 07:06:31;;;;;;;0.30;0.20;;;;;;;10.49;67.89;100222.34;5034776;28;20845;-55
2021/05/02 07:08:57;;;;;;;0.30;0.20;;;;;;;10.68;67.45;100223.53;5034686;28;20765;-55
2021/05/02 07:11:23;;;;;;;0.30;0.20;;;;;;;10.70;67.78;100223.53;5034486;28;20447;-55
2021/05/02 07:13:50;;;;;;;0.30;0.20;;;;;;;10.97;67.21;100224.47;5034474;28;20478;-55
2021/05/02 07:16:17;;;;;;;0.30;0.20;;;;;;;11.10;66.60;100233.78;5034339;28;20459;-54
2021/05/02 07:18:45;;;;;;;0.40;0.20;;;;;;;10.38;67.32;100230.63;5034475;28;20448;-55
2021/05/02 07:21:14;;;;;;;0.30;0.20;;;;;;;10.65;66.57;100236.06;5034402;28;20781;-54
2021/05/02 07:23:43;;;;;;;0.30;0.20;;;;;;;10.91;66.67;100229.94;5034451;28;20525;-55
2021/05/02 07:26:09;;;;;;;3.07;2.70;;;;;;;10.94;65.79;100227.19;5034195;28;20452;-55
2021/05/02 07:28:35;;;;;;;0.40;0.40;;;;;;;10.83;65.52;100235.53;5034210;28;20452;-54
2021/05/02 07:31:02;;;;;;;1.13;1.13;;;;;;;11.19;66.12;100224.63;5034015;28;20447;-54
2021/05/02 07:33:28;;;;;;;0.30;0.20;;;;;;;11.25;63.82;100224.44;5034138;28;20479;-54
2021/05/02 07:35:55;;;;;;;0.30;0.20;;;;;;;11.14;64.16;100237.22;5034045;28;20447;-54
2021/05/02 07:38:22;;;;;;;0.30;0.20;;;;;;;11.18;63.58;100238.84;5034275;28;20829;-54
2021/05/02 07:40:49;;;;;;;0.30;0.20;;;;;;;11.04;64.39;100241.09;5033960;28;20494;-54
2021/05/02 07:43:16;;;;;;;0.30;0.20;;;;;;;10.87;65.51;100241.59;5033811;28;20479;-55
2021/05/02 07:45:42;;;;;;;0.30;0.20;;;;;;;11.38;64.41;100243.56;5020981;28;20890;-55
2021/05/02 07:48:09;;;;;;;0.30;0.20;;;;;;;11.75;63.42;100243.19;5034086;28;20451;-54
2021/05/02 07:50:36;;;;;;;0.57;0.57;;;;;;;11.48;60.77;100245.84;5030255;28;20476;-54
2021/05/02 07:53:06;;;;;;;0.30;0.20;;;;;;;11.77;59.50;100239.53;5023305;28;20471;-55
2021/05/02 07:55:32;;;;;;;0.37;0.30;;;;;;;12.02;57.68;100238.72;5033523;28;20456;-55
2021/05/02 07:58:00;;;;;;;0.30;0.20;;;;;;;11.99;57.40;100247.69;5034090;28;20451;-55
2021/05/02 08:00:26;;;;;;;0.30;0.20;;;;;;;11.93;58.98;100249.72;5033625;28;20491;-55
2021/05/02 08:02:52;;;;;;;0.30;0.20;;;;;;;11.89;60.68;100243.59;5033703;28;20546;-55
2021/05/02 08:05:19;;;;;;;0.30;0.20;;;;;;;12.35;60.46;100248.19;5033406;28;20479;-55
2021/05/02 08:07:45;;;;;;;0.30;0.20;;;;;;;12.35;58.74;100250.84;5033687;28;20459;-55
2021/05/02 08:10:13;;;;;;;0.30;0.20;;;;;;;12.34;57.34;100248.25;5033554;28;20877;-55
2021/05/02 08:12:40;;;;;;;0.40;0.30;;;;;;;12.48;57.96;100248.59;5033662;28;20467;-55
2021/05/02 08:15:08;;;;;;;0.40;0.40;;;;;;;12.83;56.05;100247.25;5033647;28;20873;-55
2021/05/02 08:17:35;;;;;;;0.30;0.20;;;;;;;12.50;55.31;100253.88;5033372;28;20509;-55
2021/05/02 08:20:04;;;;;;;0.30;0.20;;;;;;;12.28;54.89;100259.97;5033392;28;20491;-54
2021/05/02 08:22:30;;;;;;;0.30;0.20;;;;;;;12.39;56.41;100254.25;5033354;28;20525;-55
2021/05/02 08:24:57;;;;;;;0.30;0.20;;;;;;;13.04;54.59;100253.56;5033229;28;20871;-55
2021/05/02 08:27:23;;;;;;;0.30;0.20;;;;;;;12.82;53.84;100256.19;5033517;28;20452;-55
2021/05/02 08:29:49;;;;;;;0.30;0.20;;;;;;;13.05;54.21;100253.50;5033448;28;20452;-55
2021/05/02 08:32:15;;;;;;;0.30;0.20;;;;;;;12.33;55.90;100263.34;5033158;28;20499;-55
2021/05/02 08:34:42;;;;;;;0.30;0.20;;;;;;;12.35;56.73;100268.63;5020561;28;20474;-56
2021/05/02 08:37:08;;;;;;;0.30;0.20;;;;;;;12.72;56.66;100265.47;5015422;28;20525;-56
2021/05/02 08:39:34;;;;;;;0.40;0.40;;;;;;;13.13;55.27;100263.00;5033067;28;20487;-57
2021/05/02 08:42:01;;;;;;;0.30;0.20;;;;;;;13.34;54.54;100257.72;5033264;28;20451;-56
2021/05/02 08:44:30;;;;;;;0.40;0.40;;;;;;;13.30;54.14;100266.78;5032775;28;20451;-57
2021/05/02 08:46:56;;;;;;;0.40;0.40;;;;;;;12.93;53.95;100263.78;5032861;28;20501;-56
2021/05/02 08:49:22;;;;;;;0.40;0.30;;;;;;;13.06;55.04;100262.38;5032637;28;20451;-56
2021/05/02 08:51:51;;;;;;;0.30;0.20;;;;;;;12.97;54.92;100257.41;5019842;28;20459;-56
2021/05/02 08:54:18;;;;;;;0.50;0.50;;;;;;;13.32;53.79;100272.06;5032460;28;20459;-57
2021/05/02 08:56:45;;;;;;;0.30;0.20;;;;;;;13.03;54.40;100267.84;5032664;28;20448;-56
2021/05/02 08:59:12;;;;;;;0.40;0.30;;;;;;;12.86;54.39;100272.94;5019508;28;20491;-57
2021/05/02 09:01:42;;;;;;;0.30;0.20;;;;;;;12.78;51.38;100275.03;5032533;28;20526;-56
2021/05/02 09:04:09;;;;;;;0.30;0.20;;;;;;;12.94;50.00;100284.19;5032453;28;20471;-56
2021/05/02 09:06:39;;;;;;;0.30;0.20;;;;;;;13.37;51.25;100274.53;5031836;28;20448;-56
2021/05/02 09:09:08;;;;;;;0.40;0.40;;;;;;;13.71;49.54;100274.91;5032792;28;20448;-56
2021/05/02 09:11:43;;;;;;;0.30;0.20;;;;;;;13.05;52.96;100285.53;5032335;28;20452;-56
2021/05/02 09:14:23;;;;;;;0.30;0.20;;;;;;;12.39;56.23;100275.59;5014673;28;20472;-56
2021/05/02 09:16:57;;;;;;;0.40;0.40;;;;;;;12.60;53.59;100281.91;5032334;28;20451;-56
2021/05/02 09:19:32;;;;;;;0.50;0.50;;;;;;;12.51;53.59;100282.28;5032494;28;20499;-56
2021/05/02 09:22:13;;;;;;;0.40;0.40;;;;;;;12.43;54.37;100274.53;5032426;28;20956;-56
2021/05/02 09:24:39;;;;;;;0.40;0.40;;;;;;;12.48;53.97;100285.94;5032303;28;21027;-56
2021/05/02 09:27:13;;;;;;;0.30;0.20;;;;;;;12.41;54.33;100287.94;5032998;28;20448;-56
2021/05/02 09:29:43;;;;;;;0.30;0.20;;;;;;;12.27;51.78;100292.88;5032437;28;20439;-56
2021/05/02 09:32:11;;;;;;;0.30;0.20;;;;;;;12.52;51.55;100287.56;5032411;28;20458;-56
2021/05/02 09:34:47;;;;;;;0.30;0.20;;;;;;;12.63;50.10;100295.16;5032395;28;20456;-57
2021/05/02 09:37:14;;;;;;;0.30;0.20;;;;;;;13.01;50.10;100291.88;5032475;28;20447;-57
2021/05/02 09:39:48;;;;;;;0.30;0.20;;;;;;;13.46;49.25;100277.72;5032051;28;20513;-56
2021/05/02 09:42:24;;;;;;;4.47;1.47;;;;;;;13.62;49.07;100284.16;5014859;28;20467;-57
2021/05/02 09:44:59;;;;;;;0.43;0.33;;;;;;;13.08;49.16;100289.88;5012525;28;20827;-57
2021/05/02 09:47:34;;;;;;;0.30;0.20;;;;;;;13.42;48.70;100289.44;5027609;28;20823;-56
2021/05/02 09:50:23;;;;;;;0.30;0.20;;;;;;;13.80;46.71;100292.34;5032256;28;20531;-57
2021/05/02 09:52:52;;;;;;;0.30;0.20;;;;;;;14.05;45.71;100289.50;5020672;28;20470;-57
2021/05/02 09:55:22;;;;;;;0.30;0.20;;;;;;;14.28;46.38;100299.22;5032102;28;20471;-57
2021/05/02 09:58:22;;;;;;;0.30;0.20;;;;;;;13.81;47.02;100294.06;5032252;28;20558;-57
2021/05/02 10:00:49;;;;;;;0.30;0.20;;;;;;;13.46;51.31;100309.75;5017800;28;20491;-57
2021/05/02 10:03:17;;;;;;;0.40;0.30;;;;;;;12.41;54.76;100305.72;5032037;28;20475;-56
2021/05/02 10:06:07;;;;;;;0.30;0.20;;;;;;;12.41;55.37;100303.94;5031944;28;20451;-56
2021/05/02 10:08:35;;;;;;;0.30;0.20;;;;;;;12.01;56.10;100331.09;5031699;28;20957;-56
2021/05/02 10:11:05;;;;;;;0.30;0.20;;;;;;;11.68;57.92;100326.88;5031869;28;20443;-56
2021/05/02 10:13:33;;;;;;;0.30;0.20;;;;;;;11.83;57.89;100326.41;5014531;28;20471;-56
2021/05/02 10:15:59;;;;;;;0.30;0.20;;;;;;;11.66;57.27;100320.72;5032411;28;20861;-56
2021/05/02 10:18:25;;;;;;;0.30;0.20;;;;;;;11.83;57.52;100318.41;5035491;28;20451;-56
2021/05/02 10:20:52;;;;;;;1.67;0.53;;;;;;;12.01;56.51;100323.09;5035566;28;20487;-56
2021/05/02 10:23:19;;;;;;;0.30;0.20;;;;;;;12.39;57.34;100308.44;5035470;28;20468;-56
2021/05/02 10:25:47;;;;;;;0.30;0.20;;;;;;;12.71;54.02;100315.25;5017940;28;20502;-56
2021/05/02 10:28:21;;;;;;;0.30;0.20;;;;;;;13.08;51.93;100313.88;5035539;28;20462;-56
2021/05/02 10:30:50;;;;;;;0.40;0.30;;;;;;;13.35;51.53;100311.97;5035622;28;20507;-56
2021/05/02 10:33:34;;;;;;;0.30;0.20;;;;;;;13.60;49.44;100318.09;5035268;28;21004;-56
2021/05/02 10:36:04;;;;;;;0.30;0.20;;;;;;;13.74;48.44;100322.00;5035344;28;20922;-55
2021/05/02 10:38:52;;;;;;;0.30;0.20;;;;;;;13.68;48.51;100319.56;5035201;28;20889;-56
2021/05/02 10:41:33;;;;;;;0.30;0.20;;;;;;;13.86;47.82;100324.16;5035094;28;20945;-56
2021/05/02 10:44:05;;;;;;;0.30;0.20;;;;;;;13.48;50.58;100325.72;5035198;28;20518;-56
2021/05/02 10:46:45;;;;;;;0.30;0.30;;;;;;;13.31;50.58;100340.59;5035338;28;20458;-56
2021/05/02 10:49:20;;;;;;;5.50;0.83;;;;;;;13.42;50.66;100337.50;5035275;28;21006;-56
2021/05/02 10:51:47;;;;;;;0.30;0.20;;;;;;;13.01;49.97;100358.59;5023103;28;20448;-56
2021/05/02 10:54:16;;;;;;;0.30;0.20;;;;;;;12.83;50.56;100345.09;5034739;28;20478;-56
2021/05/02 10:56:57;;;;;;;0.30;0.20;;;;;;;12.93;50.67;100350.03;5035106;28;20462;-54
2021/05/02 11:00:02;;;;;;;0.30;0.20;;;;;;;12.40;49.98;100355.50;5023976;28;20996;-54
2021/05/02 11:02:45;;;;;;;1.17;1.17;;;;;;;12.73;49.15;100355.22;4992334;28;20845;-54
2021/05/02 11:05:14;;;;;;;0.30;0.20;;;;;;;12.57;48.54;100354.91;5034666;28;20448;-54
2021/05/02 11:07:42;;;;;;;0.30;0.20;;;;;;;12.53;48.39;100347.94;5017444;28;20452;-54
2021/05/02 11:10:12;;;;;;;1.23;1.23;;;;;;;12.43;48.59;100350.06;5034846;28;20456;-54
2021/05/02 11:12:39;;;;;;;0.30;0.20;;;;;;;12.64;48.68;100359.09;5034661;28;20479;-54
2021/05/02 11:15:27;;;;;;;0.30;0.20;;;;;;;12.53;49.85;100355.06;5034573;28;20448;-54
2021/05/02 11:17:54;;;;;;;0.30;0.20;;;;;;;12.56;49.65;100368.28;5034412;28;20455;-53
2021/05/02 11:20:57;;;;;;;0.30;0.20;;;;;;;12.74;48.51;100371.16;5034472;28;20537;-54
2021/05/02 11:23:54;;;;;;;0.30;0.20;;;;;;;13.00;47.10;100358.66;4935234;29;20484;-54
2021/05/02 11:27:04;;;;;;;1.23;0.77;;;;;;;12.97;46.53;100365.00;5034411;28;20448;-54
2021/05/02 11:30:00;;;;;;;0.30;0.20;;;;;;;12.93;45.27;100362.50;5033826;28;20440;-54
2021/05/02 11:32:29;;;;;;;0.30;0.20;;;;;;;13.01;45.16;100377.28;5034007;28;20498;-54
2021/05/02 11:34:55;;;;;;;0.30;0.20;;;;;;;12.64;44.93;100360.91;5022173;28;20534;-54
2021/05/02 11:37:39;;;;;;;0.30;0.20;;;;;;;12.82;44.74;100362.03;5034373;28;20455;-54
2021/05/02 11:40:18;;;;;;;0.30;0.20;;;;;;;13.42;43.79;100372.19;5034328;28;20502;-53
2021/05/02 11:42:53;;;;;;;0.30;0.20;;;;;;;13.37;43.07;100370.66;5034076;28;20471;-54
2021/05/02 11:45:24;;;;;;;0.30;0.20;;;;;;;12.84;43.58;100362.84;5034351;28;20509;-53
2021/05/02 11:47:51;;;;;;;0.30;0.20;;;;;;;13.28;44.31;100369.19;5021616;28;20534;-54
2021/05/02 11:50:18;;;;;;;0.30;0.20;;;;;;;13.69;42.39;100375.59;5033482;28;20472;-54